createdAt,value
2015-09-08T00:00:09.466Z,26
2015-09-08T00:00:27.966Z,36
2015-09-08T00:00:46.624Z,31
2015-09-08T00:01:05.327Z,41
2015-09-08T00:01:23.734Z,33
2015-09-08T00:01:42.249Z,34
2015-09-08T00:02:00.814Z,32
2015-09-08T00:02:19.376Z,33
2015-09-08T00:02:37.923Z,35
2015-09-08T00:02:56.425Z,32
2015-09-08T00:03:15.206Z,29
2015-09-08T00:03:33.988Z,47
2015-09-08T00:03:52.646Z,44
2015-09-08T00:04:11.240Z,40
2015-09-08T00:04:29.724Z,53
2015-09-08T00:04:48.240Z,39
2015-09-08T00:05:06.788Z,47
2015-09-08T00:05:25.257Z,44
2015-09-08T00:05:43.882Z,42
2015-09-08T00:06:02.244Z,46
2015-09-08T00:06:20.619Z,46
2015-09-08T00:06:39.040Z,46
2015-09-08T00:06:57.542Z,41
2015-09-08T00:07:15.902Z,46
2015-09-08T00:07:34.324Z,48
2015-09-08T00:07:52.886Z,47
2015-09-08T00:08:11.451Z,43
2015-09-08T00:08:29.982Z,41
2015-09-08T00:08:48.560Z,49
2015-09-08T00:09:07.156Z,51
2015-09-08T00:09:25.656Z,44
2015-09-08T00:09:44.203Z,46
2015-09-08T00:10:02.580Z,46
2015-09-08T00:10:21.111Z,45
2015-09-08T00:10:39.502Z,46
2015-09-08T00:10:58.113Z,51
2015-09-08T00:11:16.675Z,48
2015-09-08T00:11:35.144Z,49
2015-09-08T00:11:53.504Z,43
2015-09-08T00:12:12.084Z,39
2015-09-08T00:12:30.459Z,41
2015-09-08T00:12:48.818Z,46
2015-09-08T00:13:07.366Z,43
2015-09-08T00:13:25.725Z,45
2015-09-08T00:13:44.366Z,41
2015-09-08T00:14:03.009Z,44
2015-09-08T00:14:21.602Z,39
2015-09-08T00:14:40.149Z,36
2015-09-08T00:14:58.618Z,37
2015-09-08T00:15:17.042Z,41
2015-09-08T00:15:35.542Z,44
2015-09-08T00:15:53.932Z,40
2015-09-08T00:16:12.545Z,41
2015-09-08T00:16:31.029Z,46
2015-09-08T00:16:49.389Z,44
2015-09-08T00:17:07.874Z,43
2015-09-08T00:17:26.561Z,46
2015-09-08T00:17:44.874Z,42
2015-09-08T00:18:03.358Z,40
2015-09-08T00:18:21.924Z,44
2015-09-08T00:18:40.299Z,42
2015-09-08T00:18:58.783Z,43
2015-09-08T00:19:17.206Z,45
2015-09-08T00:19:35.831Z,48
2015-09-08T00:19:54.456Z,42
2015-09-08T00:20:12.833Z,32
2015-09-08T00:20:31.349Z,44
2015-09-08T00:20:49.771Z,42
2015-09-08T00:21:08.523Z,33
2015-09-08T00:21:27.023Z,31
2015-09-08T00:21:45.554Z,36
2015-09-08T00:22:04.069Z,32
2015-09-08T00:22:22.526Z,36
2015-09-08T00:22:41.026Z,38
2015-09-08T00:22:59.510Z,39
2015-09-08T00:23:17.887Z,38
2015-09-08T00:23:36.324Z,33
2015-09-08T00:23:54.793Z,44
2015-09-08T00:24:13.247Z,42
2015-09-08T00:24:31.700Z,39
2015-09-08T00:24:50.216Z,36
2015-09-08T00:25:08.732Z,36
2015-09-08T00:25:27.187Z,35
2015-09-08T00:25:45.624Z,35
2015-09-08T00:26:04.046Z,36
2015-09-08T00:26:22.674Z,38
2015-09-08T00:27:04.534Z,42
2015-09-08T00:27:23.253Z,39
2015-09-08T00:27:41.769Z,37
2015-09-08T00:28:00.394Z,36
2015-09-08T00:28:18.818Z,37
2015-09-08T00:28:37.599Z,36
2015-09-08T00:28:56.021Z,35
2015-09-08T00:29:14.708Z,35
2015-09-08T00:29:33.304Z,36
2015-09-08T00:29:51.742Z,36
2015-09-08T00:30:10.117Z,35
2015-09-08T00:30:28.900Z,38
2015-09-08T00:30:47.478Z,38
2015-09-08T00:31:05.900Z,38
2015-09-08T00:31:24.276Z,36
2015-09-08T00:31:42.995Z,39
2015-09-08T00:32:01.526Z,38
2015-09-08T00:32:19.998Z,36
2015-09-08T00:32:38.732Z,36
2015-09-08T00:32:57.107Z,34
2015-09-08T00:33:15.654Z,33
2015-09-08T00:33:34.030Z,36
2015-09-08T00:33:52.405Z,38
2015-09-08T00:34:11.092Z,33
2015-09-08T00:34:29.641Z,35
2015-09-08T00:34:48.110Z,34
2015-09-08T00:35:06.891Z,35
2015-09-08T00:35:25.550Z,39
2015-09-08T00:35:43.940Z,38
2015-09-08T00:36:02.565Z,34
2015-09-08T00:36:21.003Z,29
2015-09-08T00:36:39.427Z,36
2015-09-08T00:36:57.802Z,37
2015-09-08T00:37:16.473Z,35
2015-09-08T00:37:34.898Z,36
2015-09-08T00:37:53.242Z,36
2015-09-08T00:38:11.633Z,38
2015-09-08T00:38:30.010Z,38
2015-09-08T00:38:48.400Z,41
2015-09-08T00:39:06.994Z,40
2015-09-08T00:39:25.588Z,43
2015-09-08T00:39:44.012Z,41
2015-09-08T00:40:02.730Z,42
2015-09-08T00:40:21.090Z,44
2015-09-08T00:40:39.528Z,41
2015-09-08T00:40:58.153Z,43
2015-09-08T00:41:16.560Z,44
2015-09-08T00:41:35.265Z,43
2015-09-08T00:41:53.655Z,42
2015-09-08T00:42:12.202Z,42
2015-09-08T00:42:30.687Z,43
2015-09-08T00:42:49.142Z,41
2015-09-08T00:43:07.657Z,42
2015-09-08T00:43:26.017Z,38
2015-09-08T00:43:44.707Z,38
2015-09-08T00:44:03.067Z,38
2015-09-08T00:44:21.520Z,47
2015-09-08T00:44:39.897Z,36
2015-09-08T00:44:58.319Z,45
2015-09-08T00:45:16.678Z,39
2015-09-08T00:45:35.287Z,38
2015-09-08T00:45:53.695Z,37
2015-09-08T00:46:12.148Z,38
2015-09-08T00:46:30.507Z,37
2015-09-08T00:46:49.181Z,35
2015-09-08T00:47:07.587Z,32
2015-09-08T00:47:25.993Z,35
2015-09-08T00:47:44.378Z,46
2015-09-08T00:48:02.878Z,52
2015-09-08T00:48:21.362Z,69
2015-09-08T00:48:39.940Z,71
2015-09-08T00:48:58.343Z,68
2015-09-08T00:49:16.890Z,74
2015-09-08T00:49:35.327Z,74
2015-09-08T00:49:53.745Z,148
2015-09-08T00:50:11.948Z,79
2015-09-08T00:50:30.558Z,103
2015-09-08T00:50:48.975Z,105
2015-09-08T00:51:07.521Z,92
2015-09-08T00:51:25.881Z,87
2015-09-08T00:51:44.506Z,103
2015-09-08T00:52:03.031Z,107
2015-09-08T00:52:21.469Z,107
2015-09-08T00:52:40.187Z,85
2015-09-08T00:52:58.698Z,96
2015-09-08T00:53:17.385Z,63
2015-09-08T00:53:36.432Z,56
2015-09-08T00:53:54.979Z,68
2015-09-08T00:54:13.433Z,75
2015-09-08T00:54:31.870Z,69
2015-09-08T00:54:50.261Z,85
2015-09-08T00:55:08.745Z,83
2015-09-08T00:55:27.417Z,102
2015-09-08T00:55:45.792Z,104
2015-09-08T00:56:04.419Z,113
2015-09-08T00:56:22.934Z,114
2015-09-08T00:56:41.731Z,67
2015-09-08T00:57:00.295Z,66
2015-09-08T00:57:18.842Z,67
2015-09-08T00:57:37.483Z,71
2015-09-08T00:57:56.101Z,76
2015-09-08T00:58:14.476Z,77
2015-09-08T00:58:33.179Z,78
2015-09-08T00:58:51.820Z,81
2015-09-08T00:59:10.545Z,74
2015-09-08T00:59:29.233Z,77
2015-09-08T00:59:47.874Z,74
2015-09-08T01:00:06.350Z,81
2015-09-08T01:00:24.882Z,68
2015-09-08T01:00:43.241Z,79
2015-09-08T01:01:01.748Z,84
2015-09-08T01:01:20.310Z,80
2015-09-08T01:01:38.873Z,82
2015-09-08T01:01:57.412Z,85
2015-09-08T01:02:15.818Z,73
2015-09-08T01:02:34.506Z,79
2015-09-08T01:02:53.084Z,79
2015-09-08T01:03:11.557Z,80
2015-09-08T01:03:30.088Z,77
2015-09-08T01:03:48.713Z,78
2015-09-08T01:04:07.108Z,79
2015-09-08T01:04:25.530Z,77
2015-09-08T01:04:43.920Z,84
2015-09-08T01:05:02.330Z,73
2015-09-08T01:05:20.862Z,83
2015-09-08T01:05:39.252Z,69
2015-09-08T01:05:57.830Z,75
2015-09-08T01:06:16.474Z,71
2015-09-08T01:06:35.146Z,74
2015-09-08T01:06:53.505Z,80
2015-09-08T01:07:12.151Z,80
2015-09-08T01:07:30.854Z,79
2015-09-08T01:07:49.245Z,73
2015-09-08T01:08:08.170Z,71
2015-09-08T01:08:26.873Z,75
2015-09-08T01:08:45.295Z,76
2015-09-08T01:09:03.826Z,79
2015-09-08T01:09:22.280Z,76
2015-09-08T01:09:40.717Z,81
2015-09-08T01:09:59.186Z,79
2015-09-08T01:10:17.610Z,68
2015-09-08T01:10:35.969Z,71
2015-09-08T01:10:54.563Z,69
2015-09-08T01:11:13.347Z,75
2015-09-08T01:11:31.926Z,75
2015-09-08T01:11:50.441Z,107
2015-09-08T01:12:09.256Z,72
2015-09-08T01:12:27.896Z,71
2015-09-08T01:12:46.740Z,72
2015-09-08T01:13:05.459Z,71
2015-09-08T01:13:24.102Z,72
2015-09-08T01:13:42.571Z,70
2015-09-08T01:14:01.040Z,68
2015-09-08T01:14:19.433Z,70
2015-09-08T01:14:38.058Z,75
2015-09-08T01:14:56.589Z,74
2015-09-08T01:15:15.217Z,72
2015-09-08T01:15:33.717Z,79
2015-09-08T01:15:52.279Z,76
2015-09-08T01:16:10.842Z,76
2015-09-08T01:16:29.453Z,73
2015-09-08T01:16:47.859Z,71
2015-09-08T01:17:06.234Z,76
2015-09-08T01:17:24.846Z,77
2015-09-08T01:17:43.377Z,76
2015-09-08T01:18:01.736Z,81
2015-09-08T01:18:20.145Z,81
2015-09-08T01:18:38.520Z,88
2015-09-08T01:18:56.910Z,78
2015-09-08T01:19:15.350Z,76
2015-09-08T01:19:33.912Z,75
2015-09-08T01:19:52.319Z,71
2015-09-08T01:20:10.740Z,76
2015-09-08T01:20:29.117Z,72
2015-09-08T01:20:47.805Z,76
2015-09-08T01:21:06.258Z,70
2015-09-08T01:21:24.776Z,75
2015-09-08T01:21:43.541Z,86
2015-09-08T01:22:02.135Z,73
2015-09-08T01:22:20.653Z,86
2015-09-08T01:22:39.293Z,79
2015-09-08T01:22:58.059Z,78
2015-09-08T01:23:16.746Z,70
2015-09-08T01:23:35.123Z,74
2015-09-08T01:23:53.545Z,71
2015-09-08T01:24:11.920Z,76
2015-09-08T01:24:30.485Z,69
2015-09-08T01:24:49.579Z,80
2015-09-08T01:25:07.954Z,65
2015-09-08T01:25:26.517Z,71
2015-09-08T01:25:44.986Z,79
2015-09-08T01:26:03.470Z,74
2015-09-08T01:26:21.955Z,70
2015-09-08T01:26:40.503Z,74
2015-09-08T01:26:59.160Z,72
2015-09-08T01:27:17.722Z,68
2015-09-08T01:27:36.256Z,68
2015-09-08T01:27:54.616Z,69
2015-09-08T01:28:13.178Z,56
2015-09-08T01:28:31.602Z,53
2015-09-08T01:28:50.055Z,55
2015-09-08T01:29:08.602Z,65
2015-09-08T01:29:27.509Z,61
2015-09-08T01:29:45.978Z,62
2015-09-08T01:30:04.447Z,66
2015-09-08T01:30:23.088Z,83
2015-09-08T01:30:41.684Z,79
2015-09-08T01:31:00.403Z,70
2015-09-08T01:31:19.169Z,75
2015-09-08T01:31:37.638Z,79
2015-09-08T01:31:56.201Z,83
2015-09-08T01:32:15.170Z,84
2015-09-08T01:32:33.798Z,77
2015-09-08T01:32:52.516Z,81
2015-09-08T01:33:10.985Z,79
2015-09-08T01:33:29.611Z,91
2015-09-08T01:33:48.158Z,82
2015-09-08T01:34:06.674Z,82
2015-09-08T01:34:25.142Z,80
2015-09-08T01:34:43.895Z,86
2015-09-08T01:35:02.692Z,74
2015-09-08T01:35:21.114Z,76
2015-09-08T01:35:39.490Z,71
2015-09-08T01:35:57.928Z,90
2015-09-08T01:36:16.553Z,85
2015-09-08T01:36:34.992Z,88
2015-09-08T01:36:53.586Z,82
2015-09-08T01:37:12.461Z,83
2015-09-08T01:37:30.914Z,79
2015-09-08T01:37:49.338Z,81
2015-09-08T01:38:07.916Z,77
2015-09-08T01:38:26.447Z,93
2015-09-08T01:38:45.152Z,84
2015-09-08T01:39:03.606Z,78
2015-09-08T01:39:22.184Z,83
2015-09-08T01:39:40.639Z,80
2015-09-08T01:39:59.545Z,97
2015-09-08T01:40:18.295Z,98
2015-09-08T01:40:36.654Z,100
2015-09-08T01:40:55.047Z,97
2015-09-08T01:41:13.594Z,89
2015-09-08T01:41:32.125Z,95
2015-09-08T01:41:50.721Z,98
2015-09-08T01:42:09.143Z,95
2015-09-08T01:42:27.877Z,99
2015-09-08T01:42:46.254Z,102
2015-09-08T01:43:04.957Z,121
2015-09-08T01:43:23.645Z,89
2015-09-08T01:43:42.207Z,86
2015-09-08T01:44:00.787Z,93
2015-09-08T01:44:19.162Z,90
2015-09-08T01:44:37.569Z,75
2015-09-08T01:44:55.946Z,96
2015-09-08T01:45:14.493Z,98
2015-09-08T01:45:33.180Z,90
2015-09-08T01:45:51.776Z,99
2015-09-08T01:46:10.416Z,107
2015-09-08T01:46:29.307Z,103
2015-09-08T01:46:47.918Z,76
2015-09-08T01:47:06.575Z,68
2015-09-08T01:47:25.106Z,63
2015-09-08T01:47:43.653Z,66
2015-09-08T01:48:02.186Z,79
2015-09-08T01:48:20.842Z,79
2015-09-08T01:48:39.202Z,75
2015-09-08T01:48:57.781Z,74
2015-09-08T01:49:16.437Z,69
2015-09-08T01:49:35.000Z,74
2015-09-08T01:49:53.503Z,77
2015-09-08T01:50:12.096Z,97
2015-09-08T01:50:30.706Z,97
2015-09-08T01:50:49.284Z,93
2015-09-08T01:51:07.692Z,81
2015-09-08T01:51:26.145Z,95
2015-09-08T01:51:44.864Z,78
2015-09-08T01:52:03.365Z,86
2015-09-08T01:52:21.865Z,88
2015-09-08T01:52:40.240Z,66
2015-09-08T01:52:59.212Z,72
2015-09-08T01:53:17.618Z,67
2015-09-08T01:53:36.102Z,73
2015-09-08T01:53:54.696Z,74
2015-09-08T01:54:13.135Z,78
2015-09-08T01:54:31.510Z,70
2015-09-08T01:54:49.916Z,70
2015-09-08T01:55:08.591Z,75
2015-09-08T01:55:27.044Z,76
2015-09-08T01:55:45.684Z,72
2015-09-08T01:56:04.326Z,74
2015-09-08T01:56:22.967Z,81
2015-09-08T01:56:41.701Z,68
2015-09-08T01:57:00.360Z,73
2015-09-08T01:57:18.829Z,73
2015-09-08T01:57:37.423Z,71
2015-09-08T01:57:55.860Z,71
2015-09-08T01:58:14.253Z,66
2015-09-08T01:58:32.659Z,73
2015-09-08T01:58:51.112Z,72
2015-09-08T01:59:09.754Z,67
2015-09-08T01:59:28.473Z,69
2015-09-08T01:59:46.848Z,68
2015-09-08T02:00:05.334Z,68
2015-09-08T02:00:23.740Z,64
2015-09-08T02:00:42.162Z,70
2015-09-08T02:01:00.631Z,70
2015-09-08T02:01:19.086Z,69
2015-09-08T02:01:37.492Z,70
2015-09-08T02:01:55.977Z,69
2015-09-08T02:02:14.947Z,68
2015-09-08T02:02:33.354Z,71
2015-09-08T02:02:51.713Z,70
2015-09-08T02:03:10.137Z,75
2015-09-08T02:03:28.793Z,70
2015-09-08T02:03:47.449Z,72
2015-09-08T02:04:05.824Z,73
2015-09-08T02:04:24.436Z,74
2015-09-08T02:04:43.092Z,77
2015-09-08T02:05:01.467Z,76
2015-09-08T02:05:19.939Z,80
2015-09-08T02:05:38.689Z,78
2015-09-08T02:05:57.439Z,106
2015-09-08T02:06:15.830Z,109
2015-09-08T02:06:34.643Z,95
2015-09-08T02:06:53.174Z,97
2015-09-08T02:07:11.643Z,102
2015-09-08T02:07:30.286Z,99
2015-09-08T02:07:48.926Z,102
2015-09-08T02:08:07.582Z,109
2015-09-08T02:08:25.959Z,99
2015-09-08T02:08:44.459Z,101
2015-09-08T02:09:02.959Z,95
2015-09-08T02:09:21.618Z,98
2015-09-08T02:09:40.055Z,96
2015-09-08T02:09:58.946Z,97
2015-09-08T02:10:17.432Z,96
2015-09-08T02:10:36.557Z,99
2015-09-08T02:10:54.917Z,97
2015-09-08T02:11:13.323Z,93
2015-09-08T02:11:31.856Z,100
2015-09-08T02:11:50.340Z,96
2015-09-08T02:12:09.231Z,95
2015-09-08T02:12:27.858Z,111
2015-09-08T02:12:46.671Z,112
2015-09-08T02:13:05.264Z,98
2015-09-08T02:13:23.828Z,100
2015-09-08T02:13:42.375Z,99
2015-09-08T02:14:01.000Z,95
2015-09-08T02:14:19.562Z,92
2015-09-08T02:14:38.159Z,86
2015-09-08T02:14:56.518Z,87
2015-09-08T02:15:15.346Z,80
2015-09-08T02:15:33.161Z,93
2015-09-08T02:15:51.536Z,99
2015-09-08T02:16:10.098Z,95
2015-09-08T02:16:28.694Z,98
2015-09-08T02:16:47.100Z,92
2015-09-08T02:17:05.694Z,97
2015-09-08T02:17:24.259Z,89
2015-09-08T02:17:42.852Z,93
2015-09-08T02:18:01.368Z,89
2015-09-08T02:18:19.884Z,91
2015-09-08T02:18:38.338Z,88
2015-09-08T02:18:57.010Z,95
2015-09-08T02:19:15.603Z,103
2015-09-08T02:19:33.980Z,100
2015-09-08T02:19:52.449Z,96
2015-09-08T02:20:10.996Z,101
2015-09-08T02:20:29.467Z,105
2015-09-08T02:20:47.873Z,102
2015-09-08T02:21:06.295Z,96
2015-09-08T02:21:24.889Z,96
2015-09-08T02:21:43.673Z,95
2015-09-08T02:22:02.110Z,104
2015-09-08T02:22:20.595Z,103
2015-09-08T02:22:39.408Z,96
2015-09-08T02:22:57.846Z,104
2015-09-08T02:23:16.611Z,103
2015-09-08T02:23:35.052Z,104
2015-09-08T02:23:53.896Z,105
2015-09-08T02:24:12.568Z,103
2015-09-08T02:24:31.381Z,111
2015-09-08T02:24:49.881Z,110
2015-09-08T02:25:08.553Z,108
2015-09-08T02:25:26.928Z,108
2015-09-08T02:25:45.492Z,108
2015-09-08T02:26:04.024Z,106
2015-09-08T02:26:22.461Z,108
2015-09-08T02:26:41.010Z,107
2015-09-08T02:26:59.479Z,106
2015-09-08T02:27:17.885Z,108
2015-09-08T02:27:36.340Z,99
2015-09-08T02:27:54.903Z,99
2015-09-08T02:28:13.543Z,99
2015-09-08T02:28:31.965Z,100
2015-09-08T02:28:50.342Z,91
2015-09-08T02:29:08.702Z,94
2015-09-08T02:29:27.061Z,92
2015-09-08T02:29:45.735Z,96
2015-09-08T02:30:04.188Z,99
2015-09-08T02:30:22.579Z,94
2015-09-08T02:30:41.081Z,96
2015-09-08T02:30:59.612Z,89
2015-09-08T02:31:18.284Z,99
2015-09-08T02:31:36.549Z,93
2015-09-08T02:31:54.973Z,102
2015-09-08T02:32:13.395Z,93
2015-09-08T02:32:31.926Z,84
2015-09-08T02:32:50.460Z,86
2015-09-08T02:33:09.069Z,84
2015-09-08T02:33:27.428Z,81
2015-09-08T02:33:45.821Z,86
2015-09-08T02:34:04.446Z,85
2015-09-08T02:34:23.008Z,77
2015-09-08T02:34:41.430Z,89
2015-09-08T02:34:59.870Z,93
2015-09-08T02:35:18.354Z,91
2015-09-08T02:35:37.010Z,90
2015-09-08T02:35:55.528Z,94
2015-09-08T02:36:14.012Z,94
2015-09-08T02:36:32.966Z,96
2015-09-08T02:36:51.343Z,94
2015-09-08T02:37:09.827Z,95
2015-09-08T02:37:28.311Z,95
2015-09-08T02:37:46.923Z,93
2015-09-08T02:38:05.345Z,96
2015-09-08T02:38:23.907Z,93
2015-09-08T02:38:42.345Z,93
2015-09-08T02:39:00.862Z,97
2015-09-08T02:39:19.347Z,98
2015-09-08T02:39:37.972Z,100
2015-09-08T02:39:56.474Z,98
2015-09-08T02:40:14.942Z,93
2015-09-08T02:40:33.317Z,97
2015-09-08T02:40:51.710Z,94
2015-09-08T02:41:10.069Z,101
2015-09-08T02:41:28.554Z,94
2015-09-08T02:41:47.163Z,94
2015-09-08T02:42:05.617Z,95
2015-09-08T02:42:24.117Z,99
2015-09-08T02:42:42.492Z,98
2015-09-08T02:43:01.057Z,91
2015-09-08T02:43:19.432Z,96
2015-09-08T02:43:38.010Z,95
2015-09-08T02:43:56.622Z,94
2015-09-08T02:44:15.325Z,91
2015-09-08T02:44:33.763Z,93
2015-09-08T02:44:52.294Z,96
2015-09-08T02:45:10.812Z,96
2015-09-08T02:45:29.265Z,95
2015-09-08T02:45:47.624Z,115
2015-09-08T02:46:06.047Z,102
2015-09-08T02:46:24.453Z,107
2015-09-08T02:46:43.094Z,94
2015-09-08T02:47:01.783Z,100
2015-09-08T02:47:20.377Z,91
2015-09-08T02:47:38.752Z,128
2015-09-08T02:47:57.424Z,134
2015-09-08T02:48:15.848Z,111
2015-09-08T02:48:34.317Z,102
2015-09-08T02:48:53.020Z,93
2015-09-08T02:49:11.413Z,141
2015-09-08T02:49:29.851Z,103
2015-09-08T02:49:48.476Z,92
2015-09-08T02:50:06.836Z,105
2015-09-08T02:50:25.352Z,97
2015-09-08T02:50:43.914Z,102
2015-09-08T02:51:02.414Z,103
2015-09-08T02:51:20.996Z,101
2015-09-08T02:51:39.683Z,101
2015-09-08T02:51:58.324Z,104
2015-09-08T02:52:16.826Z,107
2015-09-08T02:52:35.310Z,111
2015-09-08T02:52:53.826Z,96
2015-09-08T02:53:12.592Z,91
2015-09-08T02:53:31.092Z,103
2015-09-08T02:53:49.655Z,105
2015-09-08T02:54:08.077Z,109
2015-09-08T02:54:26.642Z,85
2015-09-08T02:54:45.002Z,78
2015-09-08T02:55:03.470Z,92
2015-09-08T02:55:22.191Z,110
2015-09-08T02:55:40.675Z,110
2015-09-08T02:55:59.144Z,102
2015-09-08T02:56:17.739Z,122
2015-09-08T02:56:36.130Z,105
2015-09-08T02:56:54.614Z,103
2015-09-08T02:57:13.098Z,105
2015-09-08T02:57:31.678Z,100
2015-09-08T02:57:50.272Z,94
2015-09-08T02:58:08.850Z,94
2015-09-08T02:58:27.305Z,83
2015-09-08T02:58:46.227Z,81
2015-09-08T02:59:04.946Z,103
2015-09-08T02:59:23.323Z,95
2015-09-08T02:59:41.932Z,80
2015-09-08T03:00:00.573Z,80
2015-09-08T03:00:19.200Z,78
2015-09-08T03:00:37.778Z,77
2015-09-08T03:00:56.450Z,79
2015-09-08T03:01:14.809Z,81
2015-09-08T03:01:33.452Z,79
2015-09-08T03:01:51.452Z,83
2015-09-08T03:02:09.702Z,92
2015-09-08T03:02:28.548Z,91
2015-09-08T03:02:46.470Z,100
2015-09-08T03:03:04.985Z,102
2015-09-08T03:03:23.768Z,100
2015-09-08T03:03:42.252Z,106
2015-09-08T03:04:00.643Z,108
2015-09-08T03:04:18.361Z,106
2015-09-08T03:04:36.879Z,94
2015-09-08T03:04:55.441Z,88
2015-09-08T03:05:14.504Z,100
2015-09-08T03:05:33.023Z,98
2015-09-08T03:05:51.444Z,92
2015-09-08T03:06:09.804Z,103
2015-09-08T03:06:28.196Z,89
2015-09-08T03:06:46.618Z,84
2015-09-08T03:07:05.181Z,77
2015-09-08T03:07:23.650Z,84
2015-09-08T03:07:42.230Z,93
2015-09-08T03:08:00.745Z,91
2015-09-08T03:08:19.120Z,93
2015-09-08T03:08:37.654Z,92
2015-09-08T03:08:56.607Z,94
2015-09-08T03:09:15.091Z,99
2015-09-08T03:09:33.546Z,94
2015-09-08T03:09:52.359Z,100
2015-09-08T03:10:10.906Z,99
2015-09-08T03:10:29.673Z,84
2015-09-08T03:10:48.126Z,85
2015-09-08T03:11:06.486Z,91
2015-09-08T03:11:24.954Z,92
2015-09-08T03:11:43.675Z,85
2015-09-08T03:12:02.113Z,87
2015-09-08T03:12:21.019Z,93
2015-09-08T03:12:39.849Z,89
2015-09-08T03:12:58.349Z,92
2015-09-08T03:13:16.787Z,115
2015-09-08T03:13:35.256Z,124
2015-09-08T03:13:53.694Z,114
2015-09-08T03:14:12.225Z,112
2015-09-08T03:14:30.913Z,119
2015-09-08T03:14:49.681Z,111
2015-09-08T03:15:08.087Z,118
2015-09-08T03:15:26.666Z,118
2015-09-08T03:15:45.088Z,143
2015-09-08T03:16:03.557Z,156
2015-09-08T03:16:22.213Z,111
2015-09-08T03:16:41.184Z,101
2015-09-08T03:16:59.762Z,105
2015-09-08T03:17:18.184Z,107
2015-09-08T03:17:36.452Z,109
2015-09-08T03:17:54.702Z,109
2015-09-08T03:18:13.108Z,114
2015-09-08T03:18:31.546Z,115
2015-09-08T03:18:50.094Z,117
2015-09-08T03:19:08.454Z,104
2015-09-08T03:19:27.016Z,105
2015-09-08T03:19:45.550Z,106
2015-09-08T03:20:03.956Z,109
2015-09-08T03:20:22.440Z,105
2015-09-08T03:20:40.942Z,112
2015-09-08T03:20:59.458Z,116
2015-09-08T03:21:18.130Z,112
2015-09-08T03:21:36.520Z,109
2015-09-08T03:21:54.897Z,136
2015-09-08T03:22:13.507Z,122
2015-09-08T03:22:31.866Z,135
2015-09-08T03:22:50.431Z,125
2015-09-08T03:23:08.852Z,114
2015-09-08T03:23:27.212Z,111
2015-09-08T03:23:45.667Z,105
2015-09-08T03:24:04.167Z,105
2015-09-08T03:24:22.917Z,95
2015-09-08T03:24:41.620Z,126
2015-09-08T03:25:00.138Z,114
2015-09-08T03:25:18.544Z,98
2015-09-08T03:25:36.981Z,91
2015-09-08T03:25:55.468Z,88
2015-09-08T03:26:14.187Z,94
2015-09-08T03:26:32.843Z,93
2015-09-08T03:26:51.267Z,93
2015-09-08T03:27:09.860Z,91
2015-09-08T03:27:28.642Z,93
2015-09-08T03:27:47.206Z,94
2015-09-08T03:28:05.644Z,95
2015-09-08T03:28:24.175Z,90
2015-09-08T03:28:42.534Z,91
2015-09-08T03:29:01.052Z,92
2015-09-08T03:29:19.427Z,95
2015-09-08T03:29:37.927Z,95
2015-09-08T03:29:56.428Z,98
2015-09-08T03:30:15.022Z,93
2015-09-08T03:30:33.303Z,91
2015-09-08T03:30:51.711Z,90
2015-09-08T03:31:10.149Z,94
2015-09-08T03:31:28.633Z,92
2015-09-08T03:31:47.008Z,92
2015-09-08T03:32:05.542Z,93
2015-09-08T03:32:23.980Z,92
2015-09-08T03:32:42.652Z,97
2015-09-08T03:33:01.075Z,97
2015-09-08T03:33:19.450Z,97
2015-09-08T03:33:37.809Z,96
2015-09-08T03:33:56.390Z,97
2015-09-08T03:34:14.984Z,93
2015-09-08T03:34:33.499Z,99
2015-09-08T03:34:51.999Z,102
2015-09-08T03:35:10.422Z,105
2015-09-08T03:35:28.797Z,104
2015-09-08T03:35:47.407Z,105
2015-09-08T03:36:05.862Z,90
2015-09-08T03:36:24.252Z,91
2015-09-08T03:36:42.581Z,86
2015-09-08T03:37:01.114Z,95
2015-09-08T03:37:19.629Z,89
2015-09-08T03:37:38.083Z,91
2015-09-08T03:37:56.583Z,84
2015-09-08T03:38:15.022Z,87
2015-09-08T03:38:33.397Z,95
2015-09-08T03:38:51.897Z,91
2015-09-08T03:39:10.384Z,89
2015-09-08T03:39:28.963Z,95
2015-09-08T03:39:47.478Z,98
2015-09-08T03:40:05.917Z,99
2015-09-08T03:40:24.370Z,96
2015-09-08T03:40:42.807Z,93
2015-09-08T03:41:01.214Z,91
2015-09-08T03:41:19.966Z,90
2015-09-08T03:41:38.356Z,93
2015-09-08T03:41:56.981Z,98
2015-09-08T03:42:15.358Z,94
2015-09-08T03:42:33.718Z,101
2015-09-08T03:42:52.124Z,123
2015-09-08T03:43:10.688Z,116
2015-09-08T03:43:29.079Z,117
2015-09-08T03:43:47.766Z,124
2015-09-08T03:44:06.485Z,119
2015-09-08T03:44:25.003Z,123
2015-09-08T03:44:43.878Z,121
2015-09-08T03:45:02.300Z,126
2015-09-08T03:45:20.786Z,126
2015-09-08T03:45:39.161Z,117
2015-09-08T03:45:57.630Z,107
2015-09-08T03:46:16.210Z,118
2015-09-08T03:46:34.632Z,101
2015-09-08T03:46:53.054Z,115
2015-09-08T03:47:11.554Z,105
2015-09-08T03:47:30.149Z,104
2015-09-08T03:47:48.556Z,122
2015-09-08T03:48:07.149Z,106
2015-09-08T03:48:25.839Z,112
2015-09-08T03:48:44.245Z,108
2015-09-08T03:49:02.730Z,94
2015-09-08T03:49:21.233Z,110
2015-09-08T03:49:39.639Z,108
2015-09-08T03:49:58.092Z,102
2015-09-08T03:50:17.014Z,109
2015-09-08T03:50:35.296Z,114
2015-09-08T03:50:53.671Z,104
2015-09-08T03:51:12.202Z,107
2015-09-08T03:51:30.611Z,101
2015-09-08T03:51:49.173Z,101
2015-09-08T03:52:07.579Z,99
2015-09-08T03:52:25.956Z,101
2015-09-08T03:52:44.347Z,103
2015-09-08T03:53:02.738Z,97
2015-09-08T03:53:21.253Z,94
2015-09-08T03:53:39.630Z,99
2015-09-08T03:53:58.052Z,107
2015-09-08T03:54:16.474Z,107
2015-09-08T03:54:34.898Z,102
2015-09-08T03:54:53.554Z,103
2015-09-08T03:55:11.804Z,107
2015-09-08T03:55:30.165Z,102
2015-09-08T03:55:48.665Z,111
2015-09-08T03:56:07.087Z,111
2015-09-08T03:56:25.494Z,114
2015-09-08T03:56:43.901Z,112
2015-09-08T03:57:02.479Z,111
2015-09-08T03:57:20.838Z,106
2015-09-08T03:57:39.262Z,103
2015-09-08T03:57:57.622Z,111
2015-09-08T03:58:16.075Z,117
2015-09-08T03:58:34.484Z,112
2015-09-08T03:58:53.109Z,114
2015-09-08T03:59:11.859Z,123
2015-09-08T03:59:30.437Z,117
2015-09-08T03:59:48.860Z,115
2015-09-08T04:00:07.313Z,111
2015-09-08T04:00:25.719Z,118
2015-09-08T04:00:44.175Z,115
2015-09-08T04:01:02.707Z,119
2015-09-08T04:01:21.082Z,116
2015-09-08T04:01:39.786Z,111
2015-09-08T04:01:58.223Z,114
2015-09-08T04:02:17.005Z,110
2015-09-08T04:02:35.567Z,118
2015-09-08T04:02:54.086Z,108
2015-09-08T04:03:12.664Z,113
2015-09-08T04:03:31.133Z,114
2015-09-08T04:03:49.525Z,116
2015-09-08T04:04:07.978Z,115
2015-09-08T04:04:26.760Z,117
2015-09-08T04:04:45.230Z,116
2015-09-08T04:05:03.855Z,121
2015-09-08T04:05:22.465Z,132
2015-09-08T04:05:40.982Z,133
2015-09-08T04:05:59.373Z,98
2015-09-08T04:06:17.779Z,102
2015-09-08T04:06:36.217Z,105
2015-09-08T04:06:54.937Z,128
2015-09-08T04:07:13.437Z,101
2015-09-08T04:07:32.078Z,111
2015-09-08T04:07:50.751Z,108
2015-09-08T04:08:09.220Z,106
2015-09-08T04:08:27.720Z,105
2015-09-08T04:08:46.113Z,107
2015-09-08T04:09:04.691Z,106
2015-09-08T04:09:23.207Z,110
2015-09-08T04:09:41.832Z,110
2015-09-08T04:10:00.521Z,105
2015-09-08T04:10:18.896Z,106
2015-09-08T04:10:37.427Z,107
2015-09-08T04:10:55.913Z,110
2015-09-08T04:11:14.366Z,93
2015-09-08T04:11:32.741Z,101
2015-09-08T04:11:51.212Z,104
2015-09-08T04:12:09.681Z,114
2015-09-08T04:12:28.165Z,107
2015-09-08T04:12:47.165Z,111
2015-09-08T04:13:05.528Z,109
2015-09-08T04:13:24.262Z,114
2015-09-08T04:13:42.949Z,112
2015-09-08T04:14:01.670Z,113
2015-09-08T04:14:20.389Z,113
2015-09-08T04:14:39.264Z,114
2015-09-08T04:14:57.577Z,112
2015-09-08T04:15:16.046Z,95
2015-09-08T04:15:34.437Z,99
2015-09-08T04:15:53.171Z,107
2015-09-08T04:16:11.565Z,99
2015-09-08T04:16:30.112Z,98
2015-09-08T04:16:48.596Z,100
2015-09-08T04:17:07.285Z,105
2015-09-08T04:17:25.769Z,112
2015-09-08T04:17:44.300Z,116
2015-09-08T04:18:02.849Z,118
2015-09-08T04:18:21.365Z,125
2015-09-08T04:18:39.833Z,126
2015-09-08T04:18:58.507Z,128
2015-09-08T04:19:16.960Z,137
2015-09-08T04:19:35.414Z,125
2015-09-08T04:19:53.945Z,127
2015-09-08T04:20:12.322Z,125
2015-09-08T04:20:31.009Z,127
2015-09-08T04:20:49.494Z,129
2015-09-08T04:21:07.855Z,131
2015-09-08T04:21:26.261Z,132
2015-09-08T04:21:44.714Z,134